sensor_id;sensor_type;location;lat;lon;timestamp;P1;durP1;ratioP1;P2;durP2;ratioP2
69956;SDS011;57283;54.816;9.482;2023-03-21T00:01:33;14.43;;;5.60;;
69956;SDS011;57283;54.816;9.482;2023-03-21T00:04:01;17.50;;;5.90;;
69956;SDS011;57283;54.816;9.482;2023-03-21T00:06:29;14.17;;;5.90;;
69956;SDS011;57283;54.816;9.482;2023-03-21T00:08:57;12.13;;;5.30;;
69956;SDS011;57283;54.816;9.482;2023-03-21T00:11:26;14.02;;;5.32;;
69956;SDS011;57283;54.816;9.482;2023-03-21T00:13:54;17.10;;;6.65;;
69956;SDS011;57283;54.816;9.482;2023-03-21T00:16:27;13.35;;;5.65;;
69956;SDS011;57283;54.816;9.482;2023-03-21T00:18:58;14.67;;;5.90;;
69956;SDS011;57283;54.816;9.482;2023-03-21T00:21:28;13.15;;;5.43;;
69956;SDS011;57283;54.816;9.482;2023-03-21T00:24:17;14.43;;;5.75;;
69956;SDS011;57283;54.816;9.482;2023-03-21T00:26:46;14.88;;;6.10;;
69956;SDS011;57283;54.816;9.482;2023-03-21T00:29:14;14.18;;;6.20;;
69956;SDS011;57283;54.816;9.482;2023-03-21T00:31:42;11.87;;;5.20;;
69956;SDS011;57283;54.816;9.482;2023-03-21T00:34:09;14.45;;;5.30;;
69956;SDS011;57283;54.816;9.482;2023-03-21T00:36:38;13.05;;;5.82;;
69956;SDS011;57283;54.816;9.482;2023-03-21T00:39:06;12.63;;;5.78;;
69956;SDS011;57283;54.816;9.482;2023-03-21T00:41:33;15.90;;;6.78;;
69956;SDS011;57283;54.816;9.482;2023-03-21T00:44:09;13.80;;;6.33;;
69956;SDS011;57283;54.816;9.482;2023-03-21T00:46:39;13.82;;;6.25;;
69956;SDS011;57283;54.816;9.482;2023-03-21T00:49:22;13.95;;;5.97;;
69956;SDS011;57283;54.816;9.482;2023-03-21T00:51:50;13.88;;;6.13;;
69956;SDS011;57283;54.816;9.482;2023-03-21T00:54:18;13.27;;;5.93;;
69956;SDS011;57283;54.816;9.482;2023-03-21T00:56:46;14.07;;;6.13;;
69956;SDS011;57283;54.816;9.482;2023-03-21T00:59:15;12.07;;;6.18;;
69956;SDS011;57283;54.816;9.482;2023-03-21T01:01:43;16.75;;;6.07;;
69956;SDS011;57283;54.816;9.482;2023-03-21T01:04:12;13.82;;;6.05;;
69956;SDS011;57283;54.816;9.482;2023-03-21T01:06:42;11.63;;;5.07;;
69956;SDS011;57283;54.816;9.482;2023-03-21T01:09:10;11.97;;;5.63;;
69956;SDS011;57283;54.816;9.482;2023-03-21T01:11:39;14.00;;;5.57;;
69956;SDS011;57283;54.816;9.482;2023-03-21T01:14:07;12.68;;;5.55;;
69956;SDS011;57283;54.816;9.482;2023-03-21T01:16:49;13.50;;;5.88;;
69956;SDS011;57283;54.816;9.482;2023-03-21T01:19:19;15.63;;;5.65;;
69956;SDS011;57283;54.816;9.482;2023-03-21T01:21:54;15.57;;;5.60;;
69956;SDS011;57283;54.816;9.482;2023-03-21T01:24:22;12.18;;;6.03;;
69956;SDS011;57283;54.816;9.482;2023-03-21T01:26:49;13.75;;;5.80;;
69956;SDS011;57283;54.816;9.482;2023-03-21T01:29:17;11.48;;;5.15;;
69956;SDS011;57283;54.816;9.482;2023-03-21T01:31:44;17.20;;;5.82;;
69956;SDS011;57283;54.816;9.482;2023-03-21T01:34:13;15.40;;;5.13;;
69956;SDS011;57283;54.816;9.482;2023-03-21T01:36:41;12.85;;;5.82;;
69956;SDS011;57283;54.816;9.482;2023-03-21T01:39:09;14.13;;;6.05;;
69956;SDS011;57283;54.816;9.482;2023-03-21T01:41:37;15.35;;;6.28;;
69956;SDS011;57283;54.816;9.482;2023-03-21T01:44:10;12.98;;;5.90;;
69956;SDS011;57283;54.816;9.482;2023-03-21T01:46:41;26.03;;;6.77;;
69956;SDS011;57283;54.816;9.482;2023-03-21T01:49:21;14.63;;;6.03;;
69956;SDS011;57283;54.816;9.482;2023-03-21T01:51:52;16.38;;;6.13;;
69956;SDS011;57283;54.816;9.482;2023-03-21T01:54:26;18.20;;;6.68;;
69956;SDS011;57283;54.816;9.482;2023-03-21T01:56:55;15.98;;;5.63;;
69956;SDS011;57283;54.816;9.482;2023-03-21T01:59:25;12.47;;;5.30;;
69956;SDS011;57283;54.816;9.482;2023-03-21T02:01:55;16.40;;;6.53;;
69956;SDS011;57283;54.816;9.482;2023-03-21T02:04:24;18.80;;;6.72;;
69956;SDS011;57283;54.816;9.482;2023-03-21T02:06:55;18.90;;;6.25;;
69956;SDS011;57283;54.816;9.482;2023-03-21T02:09:24;12.77;;;6.07;;
69956;SDS011;57283;54.816;9.482;2023-03-21T02:11:53;12.77;;;5.47;;
69956;SDS011;57283;54.816;9.482;2023-03-21T02:14:21;14.43;;;5.47;;
69956;SDS011;57283;54.816;9.482;2023-03-21T02:16:57;18.77;;;6.38;;
69956;SDS011;57283;54.816;9.482;2023-03-21T02:19:53;32.67;;;6.30;;
69956;SDS011;57283;54.816;9.482;2023-03-21T02:25:26;14.83;;;5.83;;
69956;SDS011;57283;54.816;9.482;2023-03-21T02:27:58;16.65;;;5.70;;
69956;SDS011;57283;54.816;9.482;2023-03-21T02:36:20;14.73;;;5.50;;
69956;SDS011;57283;54.816;9.482;2023-03-21T02:38:54;13.97;;;5.20;;
69956;SDS011;57283;54.816;9.482;2023-03-21T02:41:24;17.35;;;5.82;;
69956;SDS011;57283;54.816;9.482;2023-03-21T02:44:06;14.57;;;5.82;;
69956;SDS011;57283;54.816;9.482;2023-03-21T02:46:36;19.63;;;6.20;;
69956;SDS011;57283;54.816;9.482;2023-03-21T02:49:15;18.10;;;5.75;;
69956;SDS011;57283;54.816;9.482;2023-03-21T02:51:43;18.20;;;5.23;;
69956;SDS011;57283;54.816;9.482;2023-03-21T02:54:14;14.73;;;5.53;;
69956;SDS011;57283;54.816;9.482;2023-03-21T02:57:00;16.15;;;5.93;;
69956;SDS011;57283;54.816;9.482;2023-03-21T02:59:29;26.45;;;6.38;;
69956;SDS011;57283;54.816;9.482;2023-03-21T03:02:00;38.85;;;6.72;;
69956;SDS011;57283;54.816;9.482;2023-03-21T03:04:28;13.93;;;5.63;;
69956;SDS011;57283;54.816;9.482;2023-03-21T03:07:02;14.18;;;5.90;;
69956;SDS011;57283;54.816;9.482;2023-03-21T03:09:33;32.90;;;7.22;;
69956;SDS011;57283;54.816;9.482;2023-03-21T03:12:07;28.67;;;7.15;;
69956;SDS011;57283;54.816;9.482;2023-03-21T03:14:38;31.30;;;6.38;;
69956;SDS011;57283;54.816;9.482;2023-03-21T03:17:31;21.03;;;5.90;;
69956;SDS011;57283;54.816;9.482;2023-03-21T03:20:08;23.17;;;5.13;;
69956;SDS011;57283;54.816;9.482;2023-03-21T03:22:45;30.67;;;6.43;;
69956;SDS011;57283;54.816;9.482;2023-03-21T03:25:16;21.15;;;5.90;;
69956;SDS011;57283;54.816;9.482;2023-03-21T03:28:01;17.10;;;6.90;;
69956;SDS011;57283;54.816;9.482;2023-03-21T03:30:29;29.53;;;6.43;;
69956;SDS011;57283;54.816;9.482;2023-03-21T03:33:08;29.25;;;6.57;;
69956;SDS011;57283;54.816;9.482;2023-03-21T03:35:36;21.30;;;5.75;;
69956;SDS011;57283;54.816;9.482;2023-03-21T03:38:04;15.02;;;5.30;;
69956;SDS011;57283;54.816;9.482;2023-03-21T03:40:35;30.00;;;6.68;;
69956;SDS011;57283;54.816;9.482;2023-03-21T03:43:08;29.57;;;6.57;;
69956;SDS011;57283;54.816;9.482;2023-03-21T03:45:38;16.40;;;5.40;;
69956;SDS011;57283;54.816;9.482;2023-03-21T03:48:10;31.50;;;6.65;;
69956;SDS011;57283;54.816;9.482;2023-03-21T03:50:39;16.65;;;5.40;;
69956;SDS011;57283;54.816;9.482;2023-03-21T03:53:12;26.40;;;6.85;;
69956;SDS011;57283;54.816;9.482;2023-03-21T03:55:45;38.00;;;5.93;;
69956;SDS011;57283;54.816;9.482;2023-03-21T03:58:15;13.13;;;5.15;;
69956;SDS011;57283;54.816;9.482;2023-03-21T04:00:50;14.38;;;4.97;;
69956;SDS011;57283;54.816;9.482;2023-03-21T04:03:17;11.85;;;4.30;;
69956;SDS011;57283;54.816;9.482;2023-03-21T04:05:45;11.38;;;4.10;;
69956;SDS011;57283;54.816;9.482;2023-03-21T04:08:13;11.03;;;4.00;;
69956;SDS011;57283;54.816;9.482;2023-03-21T04:10:41;12.70;;;4.00;;
69956;SDS011;57283;54.816;9.482;2023-03-21T04:13:10;11.27;;;4.57;;
69956;SDS011;57283;54.816;9.482;2023-03-21T04:15:38;9.55;;;3.35;;
69956;SDS011;57283;54.816;9.482;2023-03-21T04:18:05;10.93;;;4.35;;
69956;SDS011;57283;54.816;9.482;2023-03-21T04:20:33;9.17;;;3.53;;
69956;SDS011;57283;54.816;9.482;2023-03-21T04:23:02;11.48;;;3.75;;
69956;SDS011;57283;54.816;9.482;2023-03-21T04:25:32;13.55;;;4.65;;
69956;SDS011;57283;54.816;9.482;2023-03-21T04:28:00;11.43;;;4.00;;
69956;SDS011;57283;54.816;9.482;2023-03-21T04:30:29;14.52;;;4.90;;
69956;SDS011;57283;54.816;9.482;2023-03-21T04:32:59;18.77;;;4.50;;
69956;SDS011;57283;54.816;9.482;2023-03-21T04:35:27;15.45;;;5.00;;
69956;SDS011;57283;54.816;9.482;2023-03-21T04:37:54;17.10;;;4.95;;
69956;SDS011;57283;54.816;9.482;2023-03-21T04:40:22;42.90;;;6.20;;
69956;SDS011;57283;54.816;9.482;2023-03-21T04:42:50;23.95;;;5.25;;
69956;SDS011;57283;54.816;9.482;2023-03-21T04:45:18;22.00;;;5.23;;
69956;SDS011;57283;54.816;9.482;2023-03-21T04:47:47;15.43;;;5.03;;
69956;SDS011;57283;54.816;9.482;2023-03-21T04:50:15;13.82;;;4.70;;
69956;SDS011;57283;54.816;9.482;2023-03-21T04:52:42;16.95;;;5.93;;
69956;SDS011;57283;54.816;9.482;2023-03-21T04:55:10;14.02;;;4.75;;
69956;SDS011;57283;54.816;9.482;2023-03-21T04:57:38;13.27;;;4.77;;
69956;SDS011;57283;54.816;9.482;2023-03-21T05:00:06;12.25;;;4.15;;
69956;SDS011;57283;54.816;9.482;2023-03-21T05:02:36;16.27;;;5.00;;
69956;SDS011;57283;54.816;9.482;2023-03-21T05:05:05;13.05;;;4.85;;
69956;SDS011;57283;54.816;9.482;2023-03-21T05:07:36;16.90;;;6.07;;
69956;SDS011;57283;54.816;9.482;2023-03-21T05:10:04;17.10;;;5.90;;
69956;SDS011;57283;54.816;9.482;2023-03-21T05:12:32;12.68;;;4.93;;
69956;SDS011;57283;54.816;9.482;2023-03-21T05:15:00;13.63;;;5.28;;
69956;SDS011;57283;54.816;9.482;2023-03-21T05:17:28;17.08;;;5.80;;
69956;SDS011;57283;54.816;9.482;2023-03-21T05:19:55;12.55;;;4.40;;
69956;SDS011;57283;54.816;9.482;2023-03-21T05:22:24;29.90;;;5.97;;
69956;SDS011;57283;54.816;9.482;2023-03-21T05:24:54;14.13;;;5.10;;
69956;SDS011;57283;54.816;9.482;2023-03-21T05:27:22;14.60;;;5.32;;
69956;SDS011;57283;54.816;9.482;2023-03-21T05:30:02;14.88;;;5.20;;
69956;SDS011;57283;54.816;9.482;2023-03-21T05:32:30;16.20;;;4.53;;
69956;SDS011;57283;54.816;9.482;2023-03-21T05:34:58;15.87;;;5.20;;
69956;SDS011;57283;54.816;9.482;2023-03-21T05:37:27;18.23;;;5.20;;
69956;SDS011;57283;54.816;9.482;2023-03-21T05:39:55;12.20;;;5.32;;
69956;SDS011;57283;54.816;9.482;2023-03-21T05:42:22;15.98;;;5.78;;
69956;SDS011;57283;54.816;9.482;2023-03-21T05:44:50;17.00;;;5.78;;
69956;SDS011;57283;54.816;9.482;2023-03-21T05:47:18;13.53;;;4.80;;
69956;SDS011;57283;54.816;9.482;2023-03-21T05:49:45;14.55;;;4.97;;
69956;SDS011;57283;54.816;9.482;2023-03-21T05:52:13;13.48;;;4.70;;
69956;SDS011;57283;54.816;9.482;2023-03-21T05:54:42;15.00;;;4.25;;
69956;SDS011;57283;54.816;9.482;2023-03-21T05:57:10;13.73;;;4.88;;
69956;SDS011;57283;54.816;9.482;2023-03-21T05:59:37;12.27;;;4.40;;
69956;SDS011;57283;54.816;9.482;2023-03-21T06:02:05;11.35;;;3.97;;
69956;SDS011;57283;54.816;9.482;2023-03-21T06:04:32;10.60;;;3.53;;
69956;SDS011;57283;54.816;9.482;2023-03-21T06:07:00;10.93;;;3.83;;
69956;SDS011;57283;54.816;9.482;2023-03-21T06:09:28;11.38;;;4.43;;
69956;SDS011;57283;54.816;9.482;2023-03-21T06:11:57;12.03;;;4.23;;
69956;SDS011;57283;54.816;9.482;2023-03-21T06:14:25;12.77;;;4.53;;
69956;SDS011;57283;54.816;9.482;2023-03-21T06:16:52;12.40;;;4.13;;
69956;SDS011;57283;54.816;9.482;2023-03-21T06:19:20;9.85;;;3.35;;
69956;SDS011;57283;54.816;9.482;2023-03-21T06:21:48;9.68;;;3.63;;
69956;SDS011;57283;54.816;9.482;2023-03-21T06:24:15;11.17;;;4.47;;
69956;SDS011;57283;54.816;9.482;2023-03-21T06:26:44;10.18;;;3.85;;
69956;SDS011;57283;54.816;9.482;2023-03-21T06:29:13;9.10;;;3.78;;
69956;SDS011;57283;54.816;9.482;2023-03-21T06:31:41;11.95;;;3.78;;
69956;SDS011;57283;54.816;9.482;2023-03-21T06:34:08;7.35;;;2.38;;
69956;SDS011;57283;54.816;9.482;2023-03-21T06:36:37;10.27;;;3.07;;
69956;SDS011;57283;54.816;9.482;2023-03-21T06:39:04;7.53;;;3.00;;
69956;SDS011;57283;54.816;9.482;2023-03-21T06:41:33;7.40;;;3.10;;
69956;SDS011;57283;54.816;9.482;2023-03-21T06:44:01;8.15;;;3.03;;
69956;SDS011;57283;54.816;9.482;2023-03-21T06:46:30;6.80;;;2.78;;
69956;SDS011;57283;54.816;9.482;2023-03-21T06:48:57;7.07;;;2.80;;
69956;SDS011;57283;54.816;9.482;2023-03-21T06:51:25;8.15;;;2.60;;
69956;SDS011;57283;54.816;9.482;2023-03-21T06:53:53;6.40;;;2.25;;
69956;SDS011;57283;54.816;9.482;2023-03-21T06:56:20;5.53;;;1.88;;
69956;SDS011;57283;54.816;9.482;2023-03-21T06:58:48;5.97;;;2.00;;
69956;SDS011;57283;54.816;9.482;2023-03-21T07:01:16;5.77;;;2.00;;
69956;SDS011;57283;54.816;9.482;2023-03-21T07:03:45;6.75;;;2.00;;
69956;SDS011;57283;54.816;9.482;2023-03-21T07:06:12;5.15;;;1.70;;
69956;SDS011;57283;54.816;9.482;2023-03-21T07:08:40;5.50;;;2.20;;
69956;SDS011;57283;54.816;9.482;2023-03-21T07:11:08;5.10;;;1.80;;
69956;SDS011;57283;54.816;9.482;2023-03-21T07:13:36;5.87;;;1.90;;
69956;SDS011;57283;54.816;9.482;2023-03-21T07:16:03;5.80;;;1.90;;
69956;SDS011;57283;54.816;9.482;2023-03-21T07:18:31;5.13;;;1.98;;
69956;SDS011;57283;54.816;9.482;2023-03-21T07:21:00;4.30;;;1.55;;
69956;SDS011;57283;54.816;9.482;2023-03-21T07:23:28;5.35;;;2.08;;
69956;SDS011;57283;54.816;9.482;2023-03-21T07:25:55;5.57;;;1.63;;
69956;SDS011;57283;54.816;9.482;2023-03-21T07:28:23;6.18;;;2.22;;
69956;SDS011;57283;54.816;9.482;2023-03-21T07:30:51;5.55;;;2.10;;
69956;SDS011;57283;54.816;9.482;2023-03-21T07:33:19;5.80;;;2.35;;
69956;SDS011;57283;54.816;9.482;2023-03-21T07:35:48;6.53;;;2.15;;
69956;SDS011;57283;54.816;9.482;2023-03-21T07:38:17;6.00;;;2.10;;
69956;SDS011;57283;54.816;9.482;2023-03-21T07:40:45;5.82;;;2.00;;
69956;SDS011;57283;54.816;9.482;2023-03-21T07:43:13;6.78;;;2.30;;
69956;SDS011;57283;54.816;9.482;2023-03-21T07:45:41;4.95;;;2.13;;
69956;SDS011;57283;54.816;9.482;2023-03-21T07:48:09;4.97;;;2.13;;
69956;SDS011;57283;54.816;9.482;2023-03-21T07:50:38;6.20;;;1.90;;
69956;SDS011;57283;54.816;9.482;2023-03-21T07:53:05;5.38;;;2.28;;
69956;SDS011;57283;54.816;9.482;2023-03-21T07:55:34;6.43;;;2.30;;
69956;SDS011;57283;54.816;9.482;2023-03-21T07:58:03;5.95;;;2.17;;
69956;SDS011;57283;54.816;9.482;2023-03-21T08:00:31;6.10;;;1.88;;
69956;SDS011;57283;54.816;9.482;2023-03-21T08:02:58;6.03;;;2.23;;
69956;SDS011;57283;54.816;9.482;2023-03-21T08:05:27;5.93;;;2.10;;
69956;SDS011;57283;54.816;9.482;2023-03-21T08:07:55;6.32;;;2.40;;
69956;SDS011;57283;54.816;9.482;2023-03-21T08:10:23;8.02;;;2.55;;
69956;SDS011;57283;54.816;9.482;2023-03-21T08:12:52;7.82;;;2.67;;
69956;SDS011;57283;54.816;9.482;2023-03-21T08:15:20;7.90;;;2.43;;
69956;SDS011;57283;54.816;9.482;2023-03-21T08:17:48;7.43;;;2.83;;
69956;SDS011;57283;54.816;9.482;2023-03-21T08:20:16;7.88;;;2.92;;
69956;SDS011;57283;54.816;9.482;2023-03-21T08:22:47;6.35;;;2.40;;
69956;SDS011;57283;54.816;9.482;2023-03-21T08:25:15;7.75;;;2.80;;
69956;SDS011;57283;54.816;9.482;2023-03-21T08:27:43;7.67;;;2.60;;
69956;SDS011;57283;54.816;9.482;2023-03-21T08:30:14;7.10;;;2.85;;
69956;SDS011;57283;54.816;9.482;2023-03-21T08:32:42;7.78;;;3.00;;
69956;SDS011;57283;54.816;9.482;2023-03-21T08:35:10;9.07;;;3.45;;
69956;SDS011;57283;54.816;9.482;2023-03-21T08:37:38;9.02;;;3.40;;
69956;SDS011;57283;54.816;9.482;2023-03-21T08:40:07;8.97;;;3.63;;
69956;SDS011;57283;54.816;9.482;2023-03-21T08:42:36;8.88;;;3.78;;
69956;SDS011;57283;54.816;9.482;2023-03-21T08:45:05;8.73;;;3.78;;
69956;SDS011;57283;54.816;9.482;2023-03-21T08:47:34;10.70;;;4.03;;
69956;SDS011;57283;54.816;9.482;2023-03-21T08:50:02;9.80;;;4.32;;
69956;SDS011;57283;54.816;9.482;2023-03-21T08:52:31;11.87;;;4.43;;
69956;SDS011;57283;54.816;9.482;2023-03-21T08:54:59;11.23;;;4.10;;
69956;SDS011;57283;54.816;9.482;2023-03-21T08:57:28;11.10;;;4.60;;
69956;SDS011;57283;54.816;9.482;2023-03-21T08:59:56;9.23;;;3.78;;
69956;SDS011;57283;54.816;9.482;2023-03-21T09:02:23;9.70;;;4.22;;
69956;SDS011;57283;54.816;9.482;2023-03-21T09:04:52;11.57;;;4.73;;
69956;SDS011;57283;54.816;9.482;2023-03-21T09:07:24;10.27;;;4.55;;
69956;SDS011;57283;54.816;9.482;2023-03-21T09:09:53;10.35;;;4.13;;
69956;SDS011;57283;54.816;9.482;2023-03-21T09:12:40;9.85;;;4.22;;
69956;SDS011;57283;54.816;9.482;2023-03-21T09:15:08;9.93;;;4.10;;
69956;SDS011;57283;54.816;9.482;2023-03-21T09:17:37;12.23;;;5.20;;
69956;SDS011;57283;54.816;9.482;2023-03-21T09:20:11;11.38;;;4.68;;
69956;SDS011;57283;54.816;9.482;2023-03-21T09:22:44;12.75;;;4.65;;
69956;SDS011;57283;54.816;9.482;2023-03-21T09:25:12;11.25;;;5.15;;
69956;SDS011;57283;54.816;9.482;2023-03-21T09:27:40;13.43;;;4.68;;
69956;SDS011;57283;54.816;9.482;2023-03-21T09:30:11;12.30;;;4.50;;
69956;SDS011;57283;54.816;9.482;2023-03-21T09:32:39;12.20;;;5.50;;
69956;SDS011;57283;54.816;9.482;2023-03-21T09:35:07;11.35;;;5.15;;
69956;SDS011;57283;54.816;9.482;2023-03-21T09:37:38;9.85;;;4.50;;
69956;SDS011;57283;54.816;9.482;2023-03-21T09:40:12;8.73;;;4.10;;
69956;SDS011;57283;54.816;9.482;2023-03-21T09:42:42;9.73;;;4.47;;
69956;SDS011;57283;54.816;9.482;2023-03-21T09:45:14;12.10;;;5.50;;
69956;SDS011;57283;54.816;9.482;2023-03-21T09:47:46;7.85;;;3.65;;
69956;SDS011;57283;54.816;9.482;2023-03-21T09:50:19;10.13;;;4.80;;
69956;SDS011;57283;54.816;9.482;2023-03-21T09:52:50;8.65;;;4.00;;
69956;SDS011;57283;54.816;9.482;2023-03-21T09:55:21;10.77;;;4.43;;
69956;SDS011;57283;54.816;9.482;2023-03-21T09:57:54;8.80;;;4.22;;
69956;SDS011;57283;54.816;9.482;2023-03-21T10:00:25;9.45;;;4.60;;
69956;SDS011;57283;54.816;9.482;2023-03-21T10:02:56;8.13;;;4.10;;
69956;SDS011;57283;54.816;9.482;2023-03-21T10:05:32;9.07;;;4.53;;
69956;SDS011;57283;54.816;9.482;2023-03-21T10:08:03;9.30;;;4.50;;
69956;SDS011;57283;54.816;9.482;2023-03-21T10:10:34;9.18;;;4.43;;
69956;SDS011;57283;54.816;9.482;2023-03-21T10:13:03;9.38;;;4.55;;
69956;SDS011;57283;54.816;9.482;2023-03-21T10:15:31;8.35;;;4.22;;
69956;SDS011;57283;54.816;9.482;2023-03-21T10:17:59;9.43;;;4.40;;
69956;SDS011;57283;54.816;9.482;2023-03-21T10:20:28;9.27;;;4.43;;
69956;SDS011;57283;54.816;9.482;2023-03-21T10:22:57;8.57;;;4.25;;
69956;SDS011;57283;54.816;9.482;2023-03-21T10:25:29;9.02;;;4.68;;
69956;SDS011;57283;54.816;9.482;2023-03-21T10:27:57;8.43;;;3.70;;
69956;SDS011;57283;54.816;9.482;2023-03-21T10:30:31;9.55;;;4.13;;
69956;SDS011;57283;54.816;9.482;2023-03-21T10:33:02;7.70;;;3.70;;
69956;SDS011;57283;54.816;9.482;2023-03-21T10:35:31;7.50;;;3.60;;
69956;SDS011;57283;54.816;9.482;2023-03-21T10:38:02;8.52;;;3.92;;
69956;SDS011;57283;54.816;9.482;2023-03-21T10:40:32;8.00;;;3.78;;
69956;SDS011;57283;54.816;9.482;2023-03-21T10:43:17;8.60;;;4.03;;
69956;SDS011;57283;54.816;9.482;2023-03-21T10:45:45;6.77;;;3.17;;
69956;SDS011;57283;54.816;9.482;2023-03-21T10:48:13;6.53;;;3.22;;
69956;SDS011;57283;54.816;9.482;2023-03-21T10:50:41;6.95;;;3.28;;
69956;SDS011;57283;54.816;9.482;2023-03-21T10:53:14;7.50;;;3.35;;
69956;SDS011;57283;54.816;9.482;2023-03-21T10:55:46;6.63;;;3.20;;
69956;SDS011;57283;54.816;9.482;2023-03-21T10:58:15;6.60;;;3.00;;
69956;SDS011;57283;54.816;9.482;2023-03-21T11:00:52;6.13;;;3.03;;
69956;SDS011;57283;54.816;9.482;2023-03-21T11:03:21;6.78;;;3.13;;
69956;SDS011;57283;54.816;9.482;2023-03-21T11:05:52;7.63;;;3.28;;
69956;SDS011;57283;54.816;9.482;2023-03-21T11:08:19;5.95;;;2.90;;
69956;SDS011;57283;54.816;9.482;2023-03-21T11:10:51;7.17;;;3.27;;
69956;SDS011;57283;54.816;9.482;2023-03-21T11:13:22;6.95;;;3.00;;
69956;SDS011;57283;54.816;9.482;2023-03-21T11:15:52;6.63;;;2.75;;
69956;SDS011;57283;54.816;9.482;2023-03-21T11:18:20;6.68;;;2.90;;
69956;SDS011;57283;54.816;9.482;2023-03-21T11:20:49;5.75;;;2.63;;
69956;SDS011;57283;54.816;9.482;2023-03-21T11:23:17;6.00;;;2.93;;
69956;SDS011;57283;54.816;9.482;2023-03-21T11:25:46;6.80;;;2.42;;
69956;SDS011;57283;54.816;9.482;2023-03-21T11:28:17;5.20;;;2.65;;
69956;SDS011;57283;54.816;9.482;2023-03-21T11:30:49;5.53;;;2.45;;
69956;SDS011;57283;54.816;9.482;2023-03-21T11:33:17;5.93;;;2.75;;
69956;SDS011;57283;54.816;9.482;2023-03-21T11:35:56;6.20;;;2.40;;
69956;SDS011;57283;54.816;9.482;2023-03-21T11:38:24;4.72;;;2.15;;
69956;SDS011;57283;54.816;9.482;2023-03-21T11:40:53;6.22;;;2.40;;
69956;SDS011;57283;54.816;9.482;2023-03-21T11:43:26;5.72;;;2.58;;
69956;SDS011;57283;54.816;9.482;2023-03-21T11:45:55;5.28;;;2.40;;
69956;SDS011;57283;54.816;9.482;2023-03-21T11:48:23;5.00;;;2.20;;
69956;SDS011;57283;54.816;9.482;2023-03-21T11:50:54;4.72;;;2.13;;
69956;SDS011;57283;54.816;9.482;2023-03-21T11:53:24;4.88;;;2.15;;
69956;SDS011;57283;54.816;9.482;2023-03-21T11:56:08;4.38;;;1.80;;
69956;SDS011;57283;54.816;9.482;2023-03-21T11:58:42;3.95;;;1.80;;
69956;SDS011;57283;54.816;9.482;2023-03-21T12:01:14;4.93;;;1.70;;
69956;SDS011;57283;54.816;9.482;2023-03-21T12:03:47;4.55;;;1.83;;
69956;SDS011;57283;54.816;9.482;2023-03-21T12:06:22;4.57;;;1.75;;
69956;SDS011;57283;54.816;9.482;2023-03-21T12:09:02;3.85;;;1.50;;
69956;SDS011;57283;54.816;9.482;2023-03-21T12:11:33;4.05;;;1.73;;
69956;SDS011;57283;54.816;9.482;2023-03-21T12:14:06;4.57;;;1.60;;
69956;SDS011;57283;54.816;9.482;2023-03-21T12:16:40;4.35;;;1.60;;
69956;SDS011;57283;54.816;9.482;2023-03-21T12:19:16;3.47;;;1.45;;
69956;SDS011;57283;54.816;9.482;2023-03-21T12:21:50;4.00;;;1.48;;
69956;SDS011;57283;54.816;9.482;2023-03-21T12:24:21;3.80;;;1.70;;
69956;SDS011;57283;54.816;9.482;2023-03-21T12:26:51;4.37;;;1.70;;
69956;SDS011;57283;54.816;9.482;2023-03-21T12:29:28;5.35;;;2.03;;
69956;SDS011;57283;54.816;9.482;2023-03-21T12:32:03;4.78;;;1.60;;
69956;SDS011;57283;54.816;9.482;2023-03-21T12:34:39;4.35;;;1.50;;
69956;SDS011;57283;54.816;9.482;2023-03-21T12:37:12;4.15;;;1.70;;
69956;SDS011;57283;54.816;9.482;2023-03-21T12:39:42;5.00;;;1.93;;
69956;SDS011;57283;54.816;9.482;2023-03-21T12:42:20;5.00;;;1.88;;
69956;SDS011;57283;54.816;9.482;2023-03-21T12:44:53;6.20;;;1.95;;
69956;SDS011;57283;54.816;9.482;2023-03-21T12:47:23;5.85;;;2.47;;
69956;SDS011;57283;54.816;9.482;2023-03-21T12:49:53;5.45;;;2.03;;
69956;SDS011;57283;54.816;9.482;2023-03-21T12:52:23;4.63;;;2.10;;
69956;SDS011;57283;54.816;9.482;2023-03-21T12:54:53;5.03;;;2.22;;
69956;SDS011;57283;54.816;9.482;2023-03-21T12:57:24;6.65;;;2.47;;
69956;SDS011;57283;54.816;9.482;2023-03-21T12:59:57;6.13;;;2.45;;
69956;SDS011;57283;54.816;9.482;2023-03-21T13:02:28;6.40;;;2.80;;
69956;SDS011;57283;54.816;9.482;2023-03-21T13:04:58;5.93;;;2.37;;
69956;SDS011;57283;54.816;9.482;2023-03-21T13:07:28;6.47;;;2.97;;
69956;SDS011;57283;54.816;9.482;2023-03-21T13:09:57;7.03;;;2.72;;
69956;SDS011;57283;54.816;9.482;2023-03-21T13:12:31;7.63;;;3.45;;
69956;SDS011;57283;54.816;9.482;2023-03-21T13:15:27;7.50;;;3.28;;
69956;SDS011;57283;54.816;9.482;2023-03-21T13:17:58;7.30;;;3.60;;
69956;SDS011;57283;54.816;9.482;2023-03-21T13:20:29;7.60;;;3.30;;
69956;SDS011;57283;54.816;9.482;2023-03-21T13:23:02;6.90;;;3.00;;
69956;SDS011;57283;54.816;9.482;2023-03-21T13:25:31;6.18;;;3.03;;
69956;SDS011;57283;54.816;9.482;2023-03-21T13:28:00;5.90;;;2.85;;
69956;SDS011;57283;54.816;9.482;2023-03-21T13:30:30;5.73;;;2.80;;
69956;SDS011;57283;54.816;9.482;2023-03-21T13:33:03;6.30;;;2.78;;
69956;SDS011;57283;54.816;9.482;2023-03-21T13:35:32;6.10;;;2.92;;
69956;SDS011;57283;54.816;9.482;2023-03-21T13:38:03;6.00;;;2.55;;
69956;SDS011;57283;54.816;9.482;2023-03-21T13:40:34;4.65;;;2.10;;
69956;SDS011;57283;54.816;9.482;2023-03-21T13:43:04;6.50;;;2.33;;
69956;SDS011;57283;54.816;9.482;2023-03-21T13:45:44;5.35;;;2.22;;
69956;SDS011;57283;54.816;9.482;2023-03-21T13:48:24;5.13;;;2.28;;
69956;SDS011;57283;54.816;9.482;2023-03-21T13:50:58;5.20;;;2.00;;
69956;SDS011;57283;54.816;9.482;2023-03-21T13:53:29;5.10;;;1.88;;
69956;SDS011;57283;54.816;9.482;2023-03-21T13:56:08;4.27;;;1.87;;
69956;SDS011;57283;54.816;9.482;2023-03-21T13:58:36;4.75;;;1.98;;
69956;SDS011;57283;54.816;9.482;2023-03-21T14:01:12;4.25;;;1.90;;
69956;SDS011;57283;54.816;9.482;2023-03-21T14:03:42;4.40;;;1.85;;
69956;SDS011;57283;54.816;9.482;2023-03-21T14:06:10;3.80;;;1.58;;
69956;SDS011;57283;54.816;9.482;2023-03-21T14:08:38;3.73;;;1.40;;
69956;SDS011;57283;54.816;9.482;2023-03-21T14:11:10;3.47;;;1.20;;
69956;SDS011;57283;54.816;9.482;2023-03-21T14:13:40;3.28;;;1.40;;
69956;SDS011;57283;54.816;9.482;2023-03-21T14:16:18;3.50;;;1.60;;
69956;SDS011;57283;54.816;9.482;2023-03-21T14:18:49;3.17;;;1.20;;
69956;SDS011;57283;54.816;9.482;2023-03-21T14:21:21;3.40;;;1.27;;
69956;SDS011;57283;54.816;9.482;2023-03-21T14:23:57;3.38;;;1.27;;
69956;SDS011;57283;54.816;9.482;2023-03-21T14:26:24;3.30;;;1.30;;
69956;SDS011;57283;54.816;9.482;2023-03-21T14:28:52;3.28;;;1.10;;
69956;SDS011;57283;54.816;9.482;2023-03-21T14:31:21;3.63;;;1.40;;
69956;SDS011;57283;54.816;9.482;2023-03-21T14:33:49;3.33;;;1.30;;
69956;SDS011;57283;54.816;9.482;2023-03-21T14:36:19;3.72;;;1.20;;
69956;SDS011;57283;54.816;9.482;2023-03-21T14:38:55;3.60;;;1.23;;
69956;SDS011;57283;54.816;9.482;2023-03-21T14:41:23;3.42;;;1.30;;
69956;SDS011;57283;54.816;9.482;2023-03-21T14:44:01;3.30;;;1.38;;
69956;SDS011;57283;54.816;9.482;2023-03-21T14:46:30;3.67;;;1.43;;
69956;SDS011;57283;54.816;9.482;2023-03-21T14:49:09;3.53;;;1.50;;
69956;SDS011;57283;54.816;9.482;2023-03-21T14:51:36;3.42;;;1.20;;
69956;SDS011;57283;54.816;9.482;2023-03-21T14:54:08;3.63;;;1.30;;
69956;SDS011;57283;54.816;9.482;2023-03-21T14:56:35;3.05;;;1.20;;
69956;SDS011;57283;54.816;9.482;2023-03-21T14:59:04;3.47;;;1.30;;
69956;SDS011;57283;54.816;9.482;2023-03-21T15:01:35;3.10;;;1.20;;
69956;SDS011;57283;54.816;9.482;2023-03-21T15:04:03;3.60;;;1.30;;
69956;SDS011;57283;54.816;9.482;2023-03-21T15:06:32;3.55;;;1.40;;
69956;SDS011;57283;54.816;9.482;2023-03-21T15:09:02;4.28;;;1.30;;